sensor_id;sensor_type;location;lat;lon;timestamp;pressure;altitude;pressure_sealevel;temperature;humidity
55217;BME280;41086;46.736;15.666;2023-09-08T00:00:21;99139.31;;;17.60;100.00
55217;BME280;41086;46.736;15.666;2023-09-08T00:02:48;99145.53;;;17.61;100.00
55217;BME280;41086;46.736;15.666;2023-09-08T00:05:14;99145.53;;;17.61;100.00
55217;BME280;41086;46.736;15.666;2023-09-08T00:07:41;99131.78;;;17.23;100.00
55217;BME280;41086;46.736;15.666;2023-09-08T00:10:09;99141.59;;;17.13;100.00
55217;BME280;41086;46.736;15.666;2023-09-08T00:12:38;99144.28;;;17.13;100.00
55217;BME280;41086;46.736;15.666;2023-09-08T00:15:05;99142.56;;;17.12;100.00
55217;BME280;41086;46.736;15.666;2023-09-08T00:17:32;99140.03;;;17.11;100.00
55217;BME280;41086;46.736;15.666;2023-09-08T00:19:59;99143.81;;;17.08;100.00
55217;BME280;41086;46.736;15.666;2023-09-08T00:22:26;99135.72;;;16.98;100.00
55217;BME280;41086;46.736;15.666;2023-09-08T00:24:52;99137.22;;;16.91;100.00
55217;BME280;41086;46.736;15.666;2023-09-08T00:27:19;99135.13;;;16.95;100.00
55217;BME280;41086;46.736;15.666;2023-09-08T00:29:46;99139.00;;;17.02;100.00
55217;BME280;41086;46.736;15.666;2023-09-08T00:32:13;99139.88;;;17.12;100.00
55217;BME280;41086;46.736;15.666;2023-09-08T00:34:40;99136.38;;;17.12;100.00
55217;BME280;41086;46.736;15.666;2023-09-08T00:37:07;99129.91;;;17.14;100.00
55217;BME280;41086;46.736;15.666;2023-09-08T00:39:37;99137.16;;;17.02;100.00
55217;BME280;41086;46.736;15.666;2023-09-08T00:42:05;99137.53;;;16.98;100.00
55217;BME280;41086;46.736;15.666;2023-09-08T00:44:34;99135.44;;;17.01;100.00
55217;BME280;41086;46.736;15.666;2023-09-08T00:47:00;99131.53;;;16.84;100.00
55217;BME280;41086;46.736;15.666;2023-09-08T00:49:27;99122.91;;;16.81;100.00
55217;BME280;41086;46.736;15.666;2023-09-08T00:51:55;99129.22;;;16.80;100.00
55217;BME280;41086;46.736;15.666;2023-09-08T00:54:22;99128.03;;;16.73;100.00
55217;BME280;41086;46.736;15.666;2023-09-08T00:56:51;99125.19;;;16.74;100.00
55217;BME280;41086;46.736;15.666;2023-09-08T00:59:21;99114.22;;;16.56;100.00
55217;BME280;41086;46.736;15.666;2023-09-08T01:01:48;99114.97;;;16.58;100.00
55217;BME280;41086;46.736;15.666;2023-09-08T01:04:15;99115.06;;;16.57;100.00
55217;BME280;41086;46.736;15.666;2023-09-08T01:06:42;99119.31;;;16.59;100.00
55217;BME280;41086;46.736;15.666;2023-09-08T01:09:12;99112.94;;;16.72;100.00
55217;BME280;41086;46.736;15.666;2023-09-08T01:11:40;99114.88;;;16.81;100.00
55217;BME280;41086;46.736;15.666;2023-09-08T01:14:07;99114.16;;;16.79;100.00
55217;BME280;41086;46.736;15.666;2023-09-08T01:16:34;99123.63;;;16.83;100.00
55217;BME280;41086;46.736;15.666;2023-09-08T01:19:03;99118.88;;;16.75;100.00
55217;BME280;41086;46.736;15.666;2023-09-08T01:24:27;99117.59;;;16.70;100.00
55217;BME280;41086;46.736;15.666;2023-09-08T01:26:58;99112.22;;;16.70;100.00
55217;BME280;41086;46.736;15.666;2023-09-08T01:29:26;99118.69;;;16.67;100.00
55217;BME280;41086;46.736;15.666;2023-09-08T01:31:55;99118.41;;;16.81;100.00
55217;BME280;41086;46.736;15.666;2023-09-08T01:34:25;99104.84;;;16.94;100.00
55217;BME280;41086;46.736;15.666;2023-09-08T01:36:52;99110.56;;;17.11;100.00
55217;BME280;41086;46.736;15.666;2023-09-08T01:39:18;99105.03;;;17.02;100.00
55217;BME280;41086;46.736;15.666;2023-09-08T01:41:45;99101.81;;;16.88;100.00
55217;BME280;41086;46.736;15.666;2023-09-08T01:44:12;99104.94;;;16.60;100.00
55217;BME280;41086;46.736;15.666;2023-09-08T01:46:39;99096.47;;;16.55;100.00
55217;BME280;41086;46.736;15.666;2023-09-08T01:49:07;99097.06;;;16.91;100.00
55217;BME280;41086;46.736;15.666;2023-09-08T01:51:34;99098.03;;;17.42;100.00
55217;BME280;41086;46.736;15.666;2023-09-08T01:54:02;99108.25;;;17.48;100.00
55217;BME280;41086;46.736;15.666;2023-09-08T01:56:28;99094.47;;;17.32;100.00
55217;BME280;41086;46.736;15.666;2023-09-08T01:58:55;99099.13;;;17.09;100.00
55217;BME280;41086;46.736;15.666;2023-09-08T02:01:22;99100.91;;;17.19;100.00
55217;BME280;41086;46.736;15.666;2023-09-08T02:03:49;99094.16;;;17.25;100.00
55217;BME280;41086;46.736;15.666;2023-09-08T02:06:16;99099.41;;;17.26;100.00
55217;BME280;41086;46.736;15.666;2023-09-08T02:08:42;99094.16;;;17.25;100.00
55217;BME280;41086;46.736;15.666;2023-09-08T02:11:09;99103.19;;;17.24;100.00
55217;BME280;41086;46.736;15.666;2023-09-08T02:13:36;99096.72;;;17.26;100.00
55217;BME280;41086;46.736;15.666;2023-09-08T02:16:03;99104.69;;;17.47;100.00
55217;BME280;41086;46.736;15.666;2023-09-08T02:18:30;99107.53;;;17.46;100.00
55217;BME280;41086;46.736;15.666;2023-09-08T02:20:57;99097.00;;;17.64;100.00
55217;BME280;41086;46.736;15.666;2023-09-08T02:23:25;99100.47;;;17.45;100.00
55217;BME280;41086;46.736;15.666;2023-09-08T02:25:52;99105.81;;;17.45;100.00
55217;BME280;41086;46.736;15.666;2023-09-08T02:28:20;99100.88;;;17.40;100.00
55217;BME280;41086;46.736;15.666;2023-09-08T02:30:48;99105.91;;;17.34;100.00
55217;BME280;41086;46.736;15.666;2023-09-08T02:33:15;99099.59;;;17.35;100.00
55217;BME280;41086;46.736;15.666;2023-09-08T02:35:43;99097.19;;;17.41;100.00
55217;BME280;41086;46.736;15.666;2023-09-08T02:38:11;99105.25;;;17.41;100.00
55217;BME280;41086;46.736;15.666;2023-09-08T02:40:37;99106.09;;;17.42;100.00
55217;BME280;41086;46.736;15.666;2023-09-08T02:43:05;99102.50;;;17.32;100.00
55217;BME280;41086;46.736;15.666;2023-09-08T02:45:32;99097.41;;;17.28;100.00
55217;BME280;41086;46.736;15.666;2023-09-08T02:48:02;99101.94;;;17.28;100.00
55217;BME280;41086;46.736;15.666;2023-09-08T02:50:29;99098.53;;;17.26;100.00
55217;BME280;41086;46.736;15.666;2023-09-08T02:52:56;99104.69;;;17.17;100.00
55217;BME280;41086;46.736;15.666;2023-09-08T02:55:23;99096.66;;;16.96;100.00
55217;BME280;41086;46.736;15.666;2023-09-08T02:57:50;99100.25;;;16.85;100.00
55217;BME280;41086;46.736;15.666;2023-09-08T03:00:16;99090.31;;;16.44;100.00
55217;BME280;41086;46.736;15.666;2023-09-08T03:02:43;99093.16;;;16.63;100.00
55217;BME280;41086;46.736;15.666;2023-09-08T03:05:11;99094.47;;;16.36;100.00
55217;BME280;41086;46.736;15.666;2023-09-08T03:07:39;99096.97;;;16.49;100.00
55217;BME280;41086;46.736;15.666;2023-09-08T03:10:06;99090.97;;;16.89;100.00
55217;BME280;41086;46.736;15.666;2023-09-08T03:12:33;99095.34;;;17.11;100.00
55217;BME280;41086;46.736;15.666;2023-09-08T03:15:02;99091.22;;;17.28;100.00
55217;BME280;41086;46.736;15.666;2023-09-08T03:17:29;99104.38;;;17.10;100.00
55217;BME280;41086;46.736;15.666;2023-09-08T03:19:56;99101.44;;;17.13;100.00
55217;BME280;41086;46.736;15.666;2023-09-08T03:22:22;99099.47;;;16.94;100.00
55217;BME280;41086;46.736;15.666;2023-09-08T03:24:52;99097.00;;;17.02;100.00
55217;BME280;41086;46.736;15.666;2023-09-08T03:27:19;99105.94;;;17.13;100.00
55217;BME280;41086;46.736;15.666;2023-09-08T03:29:45;99093.19;;;16.84;100.00
55217;BME280;41086;46.736;15.666;2023-09-08T03:32:12;99099.47;;;16.62;100.00
55217;BME280;41086;46.736;15.666;2023-09-08T03:34:39;99096.06;;;16.28;100.00
55217;BME280;41086;46.736;15.666;2023-09-08T03:37:07;99096.97;;;16.17;100.00
55217;BME280;41086;46.736;15.666;2023-09-08T03:39:34;99093.44;;;16.16;100.00
55217;BME280;41086;46.736;15.666;2023-09-08T03:42:01;99091.13;;;16.12;100.00
55217;BME280;41086;46.736;15.666;2023-09-08T03:44:28;99088.25;;;15.92;100.00
55217;BME280;41086;46.736;15.666;2023-09-08T03:46:55;99093.66;;;16.25;100.00
55217;BME280;41086;46.736;15.666;2023-09-08T03:49:22;99094.72;;;16.33;100.00
55217;BME280;41086;46.736;15.666;2023-09-08T03:51:49;99098.22;;;16.45;100.00
55217;BME280;41086;46.736;15.666;2023-09-08T03:54:16;99088.94;;;16.49;100.00
55217;BME280;41086;46.736;15.666;2023-09-08T03:56:44;99095.34;;;16.58;100.00
55217;BME280;41086;46.736;15.666;2023-09-08T03:59:11;99094.19;;;16.51;100.00
55217;BME280;41086;46.736;15.666;2023-09-08T04:01:38;99089.16;;;16.57;100.00
55217;BME280;41086;46.736;15.666;2023-09-08T04:04:05;99101.38;;;16.71;100.00
55217;BME280;41086;46.736;15.666;2023-09-08T04:06:32;99095.56;;;16.66;100.00
55217;BME280;41086;46.736;15.666;2023-09-08T04:08:59;99101.59;;;16.47;100.00
55217;BME280;41086;46.736;15.666;2023-09-08T04:11:26;99105.13;;;16.80;100.00
55217;BME280;41086;46.736;15.666;2023-09-08T04:13:53;99105.69;;;16.95;100.00
55217;BME280;41086;46.736;15.666;2023-09-08T04:16:20;99111.03;;;16.62;100.00
55217;BME280;41086;46.736;15.666;2023-09-08T04:18:47;99108.19;;;16.43;100.00
55217;BME280;41086;46.736;15.666;2023-09-08T04:21:14;99109.19;;;16.63;100.00
55217;BME280;41086;46.736;15.666;2023-09-08T04:23:41;99108.19;;;16.43;100.00
55217;BME280;41086;46.736;15.666;2023-09-08T04:26:07;99118.81;;;16.22;100.00
55217;BME280;41086;46.736;15.666;2023-09-08T04:28:34;99111.06;;;16.19;100.00
55217;BME280;41086;46.736;15.666;2023-09-08T04:31:01;99108.06;;;16.12;100.00
55217;BME280;41086;46.736;15.666;2023-09-08T04:33:29;99114.78;;;16.28;100.00
55217;BME280;41086;46.736;15.666;2023-09-08T04:35:56;99103.34;;;15.93;100.00
55217;BME280;41086;46.736;15.666;2023-09-08T04:38:23;99110.88;;;16.00;100.00
55217;BME280;41086;46.736;15.666;2023-09-08T04:40:50;99105.38;;;16.01;100.00
55217;BME280;41086;46.736;15.666;2023-09-08T04:43:17;99110.09;;;16.09;100.00
55217;BME280;41086;46.736;15.666;2023-09-08T04:45:44;99122.13;;;16.14;100.00
55217;BME280;41086;46.736;15.666;2023-09-08T04:48:11;99114.72;;;16.18;100.00
55217;BME280;41086;46.736;15.666;2023-09-08T04:50:39;99116.16;;;16.22;100.00
55217;BME280;41086;46.736;15.666;2023-09-08T04:53:07;99112.75;;;16.31;100.00
55217;BME280;41086;46.736;15.666;2023-09-08T04:55:34;99115.44;;;16.52;100.00
55217;BME280;41086;46.736;15.666;2023-09-08T04:58:03;99113.88;;;16.82;100.00
55217;BME280;41086;46.736;15.666;2023-09-08T05:00:30;99120.44;;;17.10;100.00
55217;BME280;41086;46.736;15.666;2023-09-08T05:02:57;99118.44;;;17.33;100.00
55217;BME280;41086;46.736;15.666;2023-09-08T05:05:24;99118.06;;;17.38;100.00
55217;BME280;41086;46.736;15.666;2023-09-08T05:07:51;99121.00;;;17.35;100.00
55217;BME280;41086;46.736;15.666;2023-09-08T05:10:23;99120.47;;;17.41;100.00
55217;BME280;41086;46.736;15.666;2023-09-08T05:12:50;99123.34;;;17.28;100.00
55217;BME280;41086;46.736;15.666;2023-09-08T05:15:18;99121.22;;;17.22;100.00
55217;BME280;41086;46.736;15.666;2023-09-08T05:17:51;99124.69;;;17.13;100.00
55217;BME280;41086;46.736;15.666;2023-09-08T05:20:19;99136.91;;;17.26;100.00
55217;BME280;41086;46.736;15.666;2023-09-08T05:22:46;99132.84;;;17.11;100.00
55217;BME280;41086;46.736;15.666;2023-09-08T05:25:13;99128.47;;;16.89;100.00
55217;BME280;41086;46.736;15.666;2023-09-08T05:27:40;99131.22;;;16.67;100.00
55217;BME280;41086;46.736;15.666;2023-09-08T05:30:07;99131.56;;;16.30;100.00
55217;BME280;41086;46.736;15.666;2023-09-08T05:32:35;99125.72;;;16.36;100.00
55217;BME280;41086;46.736;15.666;2023-09-08T05:35:03;99132.56;;;16.29;100.00
55217;BME280;41086;46.736;15.666;2023-09-08T05:37:30;99132.50;;;16.51;100.00
55217;BME280;41086;46.736;15.666;2023-09-08T05:39:57;99130.75;;;16.61;100.00
55217;BME280;41086;46.736;15.666;2023-09-08T05:42:24;99128.59;;;16.76;100.00
55217;BME280;41086;46.736;15.666;2023-09-08T05:44:51;99139.69;;;16.83;100.00
55217;BME280;41086;46.736;15.666;2023-09-08T05:47:18;99136.16;;;16.82;100.00
55217;BME280;41086;46.736;15.666;2023-09-08T05:49:45;99134.97;;;16.96;100.00
55217;BME280;41086;46.736;15.666;2023-09-08T05:52:12;99136.81;;;17.17;100.00
55217;BME280;41086;46.736;15.666;2023-09-08T05:54:40;99128.66;;;16.97;100.00
55217;BME280;41086;46.736;15.666;2023-09-08T05:57:07;99130.53;;;17.06;100.00
55217;BME280;41086;46.736;15.666;2023-09-08T05:59:34;99135.09;;;17.37;100.00
55217;BME280;41086;46.736;15.666;2023-09-08T06:02:01;99140.03;;;17.62;100.00
55217;BME280;41086;46.736;15.666;2023-09-08T06:04:28;99137.75;;;17.79;100.00
55217;BME280;41086;46.736;15.666;2023-09-08T06:07:00;99133.22;;;17.79;100.00
55217;BME280;41086;46.736;15.666;2023-09-08T06:09:27;99143.41;;;17.85;100.00
55217;BME280;41086;46.736;15.666;2023-09-08T06:11:53;99148.47;;;18.29;100.00
55217;BME280;41086;46.736;15.666;2023-09-08T06:14:20;99147.94;;;18.45;100.00
55217;BME280;41086;46.736;15.666;2023-09-08T06:16:48;99142.88;;;18.51;100.00
55217;BME280;41086;46.736;15.666;2023-09-08T06:19:16;99142.56;;;18.45;100.00
55217;BME280;41086;46.736;15.666;2023-09-08T06:21:43;99135.81;;;18.50;100.00
55217;BME280;41086;46.736;15.666;2023-09-08T06:24:11;99133.69;;;18.64;100.00
55217;BME280;41086;46.736;15.666;2023-09-08T06:26:38;99141.00;;;18.42;100.00
55217;BME280;41086;46.736;15.666;2023-09-08T06:29:06;99138.94;;;18.75;100.00
55217;BME280;41086;46.736;15.666;2023-09-08T06:31:32;99138.81;;;18.96;100.00
55217;BME280;41086;46.736;15.666;2023-09-08T06:33:59;99135.88;;;18.89;100.00
55217;BME280;41086;46.736;15.666;2023-09-08T06:36:26;99137.81;;;19.07;100.00
55217;BME280;41086;46.736;15.666;2023-09-08T06:38:54;99132.81;;;19.21;100.00
55217;BME280;41086;46.736;15.666;2023-09-08T06:41:21;99127.31;;;19.23;100.00
55217;BME280;41086;46.736;15.666;2023-09-08T06:43:50;99127.78;;;18.99;100.00
55217;BME280;41086;46.736;15.666;2023-09-08T06:46:21;99130.72;;;19.25;100.00
55217;BME280;41086;46.736;15.666;2023-09-08T06:48:49;99125.63;;;19.22;100.00
55217;BME280;41086;46.736;15.666;2023-09-08T06:51:17;99132.88;;;19.68;100.00
55217;BME280;41086;46.736;15.666;2023-09-08T06:53:54;99130.75;;;19.72;100.00
55217;BME280;41086;46.736;15.666;2023-09-08T06:56:23;99129.72;;;19.83;100.00
55217;BME280;41086;46.736;15.666;2023-09-08T06:58:51;99135.63;;;19.86;99.69
55217;BME280;41086;46.736;15.666;2023-09-08T07:01:19;99132.53;;;19.81;100.00
55217;BME280;41086;46.736;15.666;2023-09-08T07:03:46;99133.03;;;19.95;100.00
55217;BME280;41086;46.736;15.666;2023-09-08T07:06:14;99133.69;;;20.06;99.00
55217;BME280;41086;46.736;15.666;2023-09-08T07:08:40;99140.97;;;20.24;97.11
55217;BME280;41086;46.736;15.666;2023-09-08T07:11:08;99144.56;;;20.60;96.67
55217;BME280;41086;46.736;15.666;2023-09-08T07:13:44;99133.50;;;20.18;95.60
55217;BME280;41086;46.736;15.666;2023-09-08T07:16:12;99140.13;;;20.69;93.60
55217;BME280;41086;46.736;15.666;2023-09-08T07:18:39;99133.66;;;20.79;91.78
55217;BME280;41086;46.736;15.666;2023-09-08T07:21:07;99141.97;;;21.04;92.01
55217;BME280;41086;46.736;15.666;2023-09-08T07:23:34;99137.22;;;21.24;90.37
55217;BME280;41086;46.736;15.666;2023-09-08T07:26:04;99134.09;;;21.37;90.25
55217;BME280;41086;46.736;15.666;2023-09-08T07:28:31;99133.34;;;21.79;88.40
55217;BME280;41086;46.736;15.666;2023-09-08T07:31:05;99136.38;;;22.10;86.61
55217;BME280;41086;46.736;15.666;2023-09-08T07:33:36;99139.19;;;22.00;86.45
55217;BME280;41086;46.736;15.666;2023-09-08T07:36:08;99136.31;;;22.36;82.54
55217;BME280;41086;46.736;15.666;2023-09-08T07:38:37;99128.03;;;22.29;81.60
55217;BME280;41086;46.736;15.666;2023-09-08T07:41:05;99133.44;;;22.38;80.85
55217;BME280;41086;46.736;15.666;2023-09-08T07:43:32;99129.94;;;22.53;78.42
55217;BME280;41086;46.736;15.666;2023-09-08T07:45:59;99128.81;;;22.81;78.87
55217;BME280;41086;46.736;15.666;2023-09-08T07:48:25;99128.31;;;23.10;78.02
55217;BME280;41086;46.736;15.666;2023-09-08T07:50:52;99126.25;;;23.36;78.08
55217;BME280;41086;46.736;15.666;2023-09-08T07:53:19;99122.00;;;23.50;75.11
55217;BME280;41086;46.736;15.666;2023-09-08T07:55:46;99131.78;;;23.67;76.69
55217;BME280;41086;46.736;15.666;2023-09-08T07:58:13;99137.34;;;23.66;74.40
55217;BME280;41086;46.736;15.666;2023-09-08T08:00:39;99130.28;;;23.57;72.66
55217;BME280;41086;46.736;15.666;2023-09-08T08:03:06;99137.03;;;23.61;75.14
55217;BME280;41086;46.736;15.666;2023-09-08T08:05:33;99144.97;;;24.18;71.79
55217;BME280;41086;46.736;15.666;2023-09-08T08:08:00;99143.44;;;24.24;71.50
55217;BME280;41086;46.736;15.666;2023-09-08T08:10:27;99137.56;;;24.12;73.32
55217;BME280;41086;46.736;15.666;2023-09-08T08:12:54;99145.59;;;24.68;68.55
55217;BME280;41086;46.736;15.666;2023-09-08T08:15:21;99138.03;;;24.78;67.61
55217;BME280;41086;46.736;15.666;2023-09-08T08:17:50;99131.94;;;24.53;68.89
55217;BME280;41086;46.736;15.666;2023-09-08T08:20:17;99134.41;;;25.17;68.28
55217;BME280;41086;46.736;15.666;2023-09-08T08:22:45;99137.88;;;25.26;64.88
55217;BME280;41086;46.736;15.666;2023-09-08T08:25:13;99128.75;;;25.56;63.33
55217;BME280;41086;46.736;15.666;2023-09-08T08:27:40;99128.19;;;25.46;62.94
55217;BME280;41086;46.736;15.666;2023-09-08T08:30:07;99115.94;;;25.50;63.91
55217;BME280;41086;46.736;15.666;2023-09-08T08:32:34;99125.00;;;25.72;63.85
55217;BME280;41086;46.736;15.666;2023-09-08T08:35:01;99120.06;;;26.20;60.34
55217;BME280;41086;46.736;15.666;2023-09-08T08:37:28;99121.56;;;25.63;61.15
55217;BME280;41086;46.736;15.666;2023-09-08T08:39:54;99118.84;;;26.08;57.59
55217;BME280;41086;46.736;15.666;2023-09-08T08:42:21;99113.44;;;26.44;58.52
55217;BME280;41086;46.736;15.666;2023-09-08T08:44:49;99116.50;;;26.56;57.05
55217;BME280;41086;46.736;15.666;2023-09-08T08:47:18;99110.69;;;26.81;60.01
55217;BME280;41086;46.736;15.666;2023-09-08T08:49:47;99109.88;;;27.08;56.72
55217;BME280;41086;46.736;15.666;2023-09-08T08:52:16;99104.59;;;26.57;56.89
55217;BME280;41086;46.736;15.666;2023-09-08T08:54:45;99108.50;;;27.69;55.22
55217;BME280;41086;46.736;15.666;2023-09-08T08:57:13;99108.59;;;27.54;52.96
55217;BME280;41086;46.736;15.666;2023-09-08T08:59:40;99109.53;;;28.50;50.71
55217;BME280;41086;46.736;15.666;2023-09-08T09:02:11;99107.16;;;28.34;51.47
55217;BME280;41086;46.736;15.666;2023-09-08T09:04:39;99107.44;;;27.70;53.32
55217;BME280;41086;46.736;15.666;2023-09-08T09:07:07;99099.03;;;28.47;52.49
55217;BME280;41086;46.736;15.666;2023-09-08T09:09:34;99096.97;;;27.67;50.81
55217;BME280;41086;46.736;15.666;2023-09-08T09:12:01;99101.81;;;27.15;52.53
55217;BME280;41086;46.736;15.666;2023-09-08T09:14:32;99108.03;;;27.93;53.66
55217;BME280;41086;46.736;15.666;2023-09-08T09:17:00;99110.78;;;28.06;50.93
55217;BME280;41086;46.736;15.666;2023-09-08T09:19:28;99102.44;;;28.76;49.76
55217;BME280;41086;46.736;15.666;2023-09-08T09:21:57;99107.25;;;28.74;49.87
55217;BME280;41086;46.736;15.666;2023-09-08T09:24:34;99111.94;;;29.13;49.12
55217;BME280;41086;46.736;15.666;2023-09-08T09:27:04;99108.31;;;28.80;48.54
55217;BME280;41086;46.736;15.666;2023-09-08T09:29:34;99107.69;;;28.78;48.31
55217;BME280;41086;46.736;15.666;2023-09-08T09:32:04;99100.56;;;29.56;45.90
55217;BME280;41086;46.736;15.666;2023-09-08T09:34:32;99098.34;;;30.05;45.55
55217;BME280;41086;46.736;15.666;2023-09-08T09:36:59;99099.91;;;29.61;48.50
55217;BME280;41086;46.736;15.666;2023-09-08T09:39:26;99106.28;;;30.27;45.08
55217;BME280;41086;46.736;15.666;2023-09-08T09:41:54;99097.41;;;31.01;45.23
55217;BME280;41086;46.736;15.666;2023-09-08T09:44:22;99095.06;;;31.05;43.90
55217;BME280;41086;46.736;15.666;2023-09-08T09:46:51;99090.03;;;31.02;44.94
55217;BME280;41086;46.736;15.666;2023-09-08T09:49:18;99093.41;;;31.72;44.25
55217;BME280;41086;46.736;15.666;2023-09-08T09:51:47;99094.97;;;31.62;44.44
55217;BME280;41086;46.736;15.666;2023-09-08T09:54:15;99091.72;;;31.28;42.29
55217;BME280;41086;46.736;15.666;2023-09-08T09:56:41;99079.88;;;31.09;41.70
55217;BME280;41086;46.736;15.666;2023-09-08T09:59:12;99085.34;;;30.77;42.44
55217;BME280;41086;46.736;15.666;2023-09-08T10:01:40;99080.94;;;29.99;43.94
55217;BME280;41086;46.736;15.666;2023-09-08T10:04:07;99077.09;;;30.14;43.43
55217;BME280;41086;46.736;15.666;2023-09-08T10:06:36;99071.63;;;30.52;45.87
55217;BME280;41086;46.736;15.666;2023-09-08T10:09:04;99074.06;;;31.49;44.35
55217;BME280;41086;46.736;15.666;2023-09-08T10:11:33;99076.84;;;32.04;40.42
55217;BME280;41086;46.736;15.666;2023-09-08T10:14:00;99079.88;;;31.96;40.55
55217;BME280;41086;46.736;15.666;2023-09-08T10:16:28;99072.13;;;31.93;39.93
55217;BME280;41086;46.736;15.666;2023-09-08T10:19:01;99077.53;;;31.12;43.60
55217;BME280;41086;46.736;15.666;2023-09-08T10:21:30;99073.44;;;31.47;41.45
55217;BME280;41086;46.736;15.666;2023-09-08T10:24:15;99070.28;;;31.87;38.14
55217;BME280;41086;46.736;15.666;2023-09-08T10:26:43;99072.22;;;32.65;37.78
55217;BME280;41086;46.736;15.666;2023-09-08T10:29:10;99072.59;;;33.34;37.76
55217;BME280;41086;46.736;15.666;2023-09-08T10:31:37;99072.88;;;33.96;36.52
55217;BME280;41086;46.736;15.666;2023-09-08T10:34:04;99068.50;;;33.84;35.28
55217;BME280;41086;46.736;15.666;2023-09-08T10:36:31;99064.56;;;33.68;36.39
55217;BME280;41086;46.736;15.666;2023-09-08T10:39:26;99064.59;;;33.21;35.58
55217;BME280;41086;46.736;15.666;2023-09-08T10:41:48;99055.88;;;32.70;35.33
55217;BME280;41086;46.736;15.666;2023-09-08T10:44:15;99055.38;;;33.27;35.10
55217;BME280;41086;46.736;15.666;2023-09-08T10:46:41;99049.56;;;33.99;34.98
55217;BME280;41086;46.736;15.666;2023-09-08T10:49:08;99047.38;;;34.70;33.20
55217;BME280;41086;46.736;15.666;2023-09-08T10:51:36;99045.50;;;35.04;31.65
55217;BME280;41086;46.736;15.666;2023-09-08T10:54:05;99049.41;;;35.25;31.83
55217;BME280;41086;46.736;15.666;2023-09-08T10:56:48;99049.44;;;35.64;31.38
55217;BME280;41086;46.736;15.666;2023-09-08T10:59:19;99049.84;;;35.95;29.89
55217;BME280;41086;46.736;15.666;2023-09-08T11:01:48;99045.16;;;36.17;31.01
55217;BME280;41086;46.736;15.666;2023-09-08T11:04:14;99048.72;;;35.96;29.85
55217;BME280;41086;46.736;15.666;2023-09-08T11:06:45;99041.03;;;36.20;29.39
55217;BME280;41086;46.736;15.666;2023-09-08T11:09:12;99047.81;;;36.34;28.76
55217;BME280;41086;46.736;15.666;2023-09-08T11:11:39;99048.44;;;36.14;28.04
55217;BME280;41086;46.736;15.666;2023-09-08T11:14:05;99048.13;;;36.11;28.10
55217;BME280;41086;46.736;15.666;2023-09-08T11:16:32;99043.91;;;36.30;31.23
55217;BME280;41086;46.736;15.666;2023-09-08T11:18:59;99041.56;;;35.95;28.29
55217;BME280;41086;46.736;15.666;2023-09-08T11:21:31;99044.03;;;36.13;29.70
55217;BME280;41086;46.736;15.666;2023-09-08T11:24:05;99037.72;;;36.45;29.20
55217;BME280;41086;46.736;15.666;2023-09-08T11:26:32;99035.66;;;36.30;29.67
55217;BME280;41086;46.736;15.666;2023-09-08T11:28:59;99032.66;;;36.10;28.92
55217;BME280;41086;46.736;15.666;2023-09-08T11:31:26;99031.78;;;36.31;29.14
55217;BME280;41086;46.736;15.666;2023-09-08T11:33:54;99033.06;;;36.51;29.81
55217;BME280;41086;46.736;15.666;2023-09-08T11:36:21;99031.91;;;36.69;28.48
55217;BME280;41086;46.736;15.666;2023-09-08T11:38:48;99031.84;;;36.96;28.47
55217;BME280;41086;46.736;15.666;2023-09-08T11:41:14;99033.41;;;37.14;29.03
55217;BME280;41086;46.736;15.666;2023-09-08T11:43:41;99028.97;;;37.13;28.03
55217;BME280;41086;46.736;15.666;2023-09-08T11:46:08;99025.13;;;37.14;27.63
55217;BME280;41086;46.736;15.666;2023-09-08T11:48:37;99026.22;;;37.18;30.05
55217;BME280;41086;46.736;15.666;2023-09-08T11:51:06;99028.78;;;37.24;27.58
55217;BME280;41086;46.736;15.666;2023-09-08T11:53:32;99032.59;;;36.86;27.46
55217;BME280;41086;46.736;15.666;2023-09-08T11:56:00;99031.22;;;36.89;26.49
55217;BME280;41086;46.736;15.666;2023-09-08T11:58:26;99023.03;;;36.99;25.72
55217;BME280;41086;46.736;15.666;2023-09-08T12:00:53;99025.19;;;36.92;25.03
55217;BME280;41086;46.736;15.666;2023-09-08T12:03:20;99022.50;;;36.65;26.21
55217;BME280;41086;46.736;15.666;2023-09-08T12:05:50;99015.16;;;36.80;27.66
55217;BME280;41086;46.736;15.666;2023-09-08T12:08:17;99007.16;;;36.52;26.32
55217;BME280;41086;46.736;15.666;2023-09-08T12:10:44;99005.88;;;36.59;28.56
55217;BME280;41086;46.736;15.666;2023-09-08T12:13:11;99008.78;;;36.80;27.48
55217;BME280;41086;46.736;15.666;2023-09-08T12:15:40;99003.75;;;36.72;28.09
55217;BME280;41086;46.736;15.666;2023-09-08T12:18:08;98999.81;;;36.95;26.76
55217;BME280;41086;46.736;15.666;2023-09-08T12:20:35;98996.47;;;36.93;26.29
55217;BME280;41086;46.736;15.666;2023-09-08T12:23:07;99008.25;;;36.83;27.42
55217;BME280;41086;46.736;15.666;2023-09-08T12:25:48;99001.66;;;36.84;27.54
55217;BME280;41086;46.736;15.666;2023-09-08T12:28:16;99006.31;;;37.16;25.68
55217;BME280;41086;46.736;15.666;2023-09-08T12:30:43;98997.59;;;37.34;26.36
55217;BME280;41086;46.736;15.666;2023-09-08T12:33:11;98987.69;;;37.01;25.43
55217;BME280;41086;46.736;15.666;2023-09-08T12:35:43;98991.59;;;37.05;26.16
55217;BME280;41086;46.736;15.666;2023-09-08T12:38:11;98995.94;;;36.96;25.78
55217;BME280;41086;46.736;15.666;2023-09-08T12:40:40;98992.53;;;37.21;26.67
55217;BME280;41086;46.736;15.666;2023-09-08T12:43:07;98990.47;;;37.48;26.27
55217;BME280;41086;46.736;15.666;2023-09-08T12:45:54;98989.19;;;37.61;29.03
55217;BME280;41086;46.736;15.666;2023-09-08T12:48:21;98985.41;;;37.88;25.00
55217;BME280;41086;46.736;15.666;2023-09-08T12:50:48;98981.19;;;37.65;24.34